Buffalo, WY

4:33 PM MDT on September 02, 2014 (GMT -0600)
Esponda Ranch | Change Station
CLOSE
Current Station
Personal Weather Station
Location: Buffalo, WY
Elevation: 4665 ft
Nearby Weather Stations

Elev 4665 ft 44.32 °N, 106.67 °W | Updated 10 minutes ago

Clear
Clear
81.4 °F
Feels Like 80 °F
N
0.0
Wind Variable Wind from ENE
Gusts 2.0 mph

Today
High -- | Low -- °F
--% Chance of Precip.
Yesterday
High -- | Low -- °F
Precip. -- in
6:30 AM 7:41 PM
First Quarter, 55% visible
Pressure 29.75 in
Visibility 10.0 miles
Clouds Clear
Heat Index 80 °F
Dew Point 40 °F
Humidity 23%
Rainfall 0.00 in
Snow Depth Not available.
UV 5 out of 12
Pollen 7.80 out of 12
Air Quality Not available.
Flu Activity Not available.
METAR KBYG 022153Z AUTO VRB04KT 10SM CLR 25/02 A2988 RMK AO2 SLP075 T02500022

More Conditions Fewer Conditions

Pressure 29.75 in
Visibility 10.0 miles
Clouds Clear
Heat Index 80 °F
Dew Point 40 °F
Humidity 23%
Rainfall 0.00 in
Snow Depth Not available.
UV 5 out of 12
Pollen 7.80 out of 12
Air Quality Not available.
Flu Activity Not available.
METAR KBYG 022153Z AUTO VRB04KT 10SM CLR 25/02 A2988 RMK AO2 SLP075 T02500022

More Conditions Fewer Conditions

10-Day Weather Forecast

Almanac

Astronomy

Sep. 02, 2014 Rise Set
Actual Time 6:30 AM MDT 7:41 PM MDT
Civil Twilight 6:01 AM MDT 8:10 PM MDT
Nautical Twilight 5:25 AM MDT 8:46 PM MDT
Astronomical Twilight 4:47 AM MDT 9:24 PM MDT
Moon 2:34 PM MDT No Moon Set
Length of Visible Light 14h 09m
Length of Day
13h 10m
Tomorrow will be 2m 59s shorter.
First Quarter, 55% of the Moon is Illuminated
Today
First Quarter
Sep 8
Full
Sep 15
Last Quarter
Sep 24
New
Oct 1
First Quarter

Today's Extremes

State Highs State Lows

Community

WunderPhotos

Upload Photos

1,749,789 photos uploaded!

Nearby

Snow Depth

Station Depth Elevation
Gunsight Pass 3 in 9820 ft
Kendall R.S. 0 in 7740 ft
New Fork Lake 1 in 8340 ft
Gros Ventre Summit 0 in 8750 ft
Loomis Park 0 in 8240 ft

Earthquake Activity

City Distance Mag. Time & Date
No recent earthquake activity has been reported nearby.
Minimum magnitude displayed is 2.5.

Coastal Water Temperatures

Place Temperature
No Stations Reporting

Nearby Weather Stations